sensor_id;sensor_type;location;lat;lon;timestamp;temperature;humidity
11577;DHT22;5844;51.496;6.788;2023-05-03T00:02:13;6.00;1.00
11577;DHT22;5844;51.496;6.788;2023-05-03T00:04:40;6.60;1.00
11577;DHT22;5844;51.496;6.788;2023-05-03T00:07:06;6.10;1.00
11577;DHT22;5844;51.496;6.788;2023-05-03T00:09:33;5.90;1.00
11577;DHT22;5844;51.496;6.788;2023-05-03T00:12:00;5.90;1.00
11577;DHT22;5844;51.496;6.788;2023-05-03T00:14:26;5.90;1.00
11577;DHT22;5844;51.496;6.788;2023-05-03T00:16:51;6.30;1.00
11577;DHT22;5844;51.496;6.788;2023-05-03T00:19:17;5.90;1.00
11577;DHT22;5844;51.496;6.788;2023-05-03T00:21:44;5.80;1.00
11577;DHT22;5844;51.496;6.788;2023-05-03T00:24:10;6.30;1.00
11577;DHT22;5844;51.496;6.788;2023-05-03T00:26:36;5.80;1.00
11577;DHT22;5844;51.496;6.788;2023-05-03T00:29:01;5.80;1.00
11577;DHT22;5844;51.496;6.788;2023-05-03T00:31:27;6.00;1.00
11577;DHT22;5844;51.496;6.788;2023-05-03T00:33:53;5.70;1.00
11577;DHT22;5844;51.496;6.788;2023-05-03T00:36:18;5.60;1.00
11577;DHT22;5844;51.496;6.788;2023-05-03T00:38:44;6.00;1.00
11577;DHT22;5844;51.496;6.788;2023-05-03T00:41:10;5.90;1.00
11577;DHT22;5844;51.496;6.788;2023-05-03T00:43:37;5.80;1.00
11577;DHT22;5844;51.496;6.788;2023-05-03T00:46:05;5.60;1.00
11577;DHT22;5844;51.496;6.788;2023-05-03T00:48:32;5.50;1.00
11577;DHT22;5844;51.496;6.788;2023-05-03T00:51:00;6.20;1.00
11577;DHT22;5844;51.496;6.788;2023-05-03T00:53:26;5.50;1.00
11577;DHT22;5844;51.496;6.788;2023-05-03T00:55:54;5.60;1.00
11577;DHT22;5844;51.496;6.788;2023-05-03T00:58:20;5.40;1.00
11577;DHT22;5844;51.496;6.788;2023-05-03T01:00:47;5.40;1.00
11577;DHT22;5844;51.496;6.788;2023-05-03T01:03:13;5.30;1.00
11577;DHT22;5844;51.496;6.788;2023-05-03T01:08:34;5.30;1.00
11577;DHT22;5844;51.496;6.788;2023-05-03T01:11:07;5.30;1.00
11577;DHT22;5844;51.496;6.788;2023-05-03T01:13:40;5.40;1.00
11577;DHT22;5844;51.496;6.788;2023-05-03T01:16:35;5.50;1.00
11577;DHT22;5844;51.496;6.788;2023-05-03T01:19:10;5.10;1.00
11577;DHT22;5844;51.496;6.788;2023-05-03T01:21:40;5.10;1.00
11577;DHT22;5844;51.496;6.788;2023-05-03T01:24:12;5.00;1.00
11577;DHT22;5844;51.496;6.788;2023-05-03T01:26:39;5.00;1.00
11577;DHT22;5844;51.496;6.788;2023-05-03T01:29:04;4.90;1.00
11577;DHT22;5844;51.496;6.788;2023-05-03T01:31:38;5.40;1.00
11577;DHT22;5844;51.496;6.788;2023-05-03T01:34:35;4.90;1.00
11577;DHT22;5844;51.496;6.788;2023-05-03T01:37:03;4.90;1.00
11577;DHT22;5844;51.496;6.788;2023-05-03T01:39:45;4.80;1.00
11577;DHT22;5844;51.496;6.788;2023-05-03T01:42:13;4.90;1.00
11577;DHT22;5844;51.496;6.788;2023-05-03T01:44:40;4.80;1.00
11577;DHT22;5844;51.496;6.788;2023-05-03T01:47:07;5.20;1.00
11577;DHT22;5844;51.496;6.788;2023-05-03T01:49:33;4.70;1.00
11577;DHT22;5844;51.496;6.788;2023-05-03T01:51:59;4.70;1.00
11577;DHT22;5844;51.496;6.788;2023-05-03T01:54:25;4.70;1.00
11577;DHT22;5844;51.496;6.788;2023-05-03T01:56:51;4.70;1.00
11577;DHT22;5844;51.496;6.788;2023-05-03T01:59:16;4.70;1.00
11577;DHT22;5844;51.496;6.788;2023-05-03T02:01:42;4.80;1.00
11577;DHT22;5844;51.496;6.788;2023-05-03T02:04:08;5.50;1.00
11577;DHT22;5844;51.496;6.788;2023-05-03T02:06:33;5.20;1.00
11577;DHT22;5844;51.496;6.788;2023-05-03T02:08:59;5.20;1.00
11577;DHT22;5844;51.496;6.788;2023-05-03T02:11:25;4.60;1.00
11577;DHT22;5844;51.496;6.788;2023-05-03T02:13:50;4.60;1.00
11577;DHT22;5844;51.496;6.788;2023-05-03T02:16:19;4.60;1.00
11577;DHT22;5844;51.496;6.788;2023-05-03T02:18:45;4.60;1.00
11577;DHT22;5844;51.496;6.788;2023-05-03T02:21:10;4.60;1.00
11577;DHT22;5844;51.496;6.788;2023-05-03T02:23:37;5.00;1.00
11577;DHT22;5844;51.496;6.788;2023-05-03T02:26:04;4.60;1.00
11577;DHT22;5844;51.496;6.788;2023-05-03T02:28:29;4.50;1.00
11577;DHT22;5844;51.496;6.788;2023-05-03T02:30:55;4.60;1.00
11577;DHT22;5844;51.496;6.788;2023-05-03T02:33:21;4.50;1.00
11577;DHT22;5844;51.496;6.788;2023-05-03T02:35:46;4.50;1.00
11577;DHT22;5844;51.496;6.788;2023-05-03T02:38:12;5.10;1.00
11577;DHT22;5844;51.496;6.788;2023-05-03T02:40:38;4.40;1.00
11577;DHT22;5844;51.496;6.788;2023-05-03T02:43:04;4.80;1.00
11577;DHT22;5844;51.496;6.788;2023-05-03T02:45:29;4.60;1.00
11577;DHT22;5844;51.496;6.788;2023-05-03T02:47:55;5.20;1.00
11577;DHT22;5844;51.496;6.788;2023-05-03T02:50:21;4.30;1.00
11577;DHT22;5844;51.496;6.788;2023-05-03T02:52:46;4.30;1.00
11577;DHT22;5844;51.496;6.788;2023-05-03T02:55:12;4.30;1.00
11577;DHT22;5844;51.496;6.788;2023-05-03T02:57:38;4.30;1.00
11577;DHT22;5844;51.496;6.788;2023-05-03T03:00:04;4.40;1.00
11577;DHT22;5844;51.496;6.788;2023-05-03T03:02:30;4.40;1.00
11577;DHT22;5844;51.496;6.788;2023-05-03T03:04:56;4.70;1.00
11577;DHT22;5844;51.496;6.788;2023-05-03T03:07:21;4.40;1.00
11577;DHT22;5844;51.496;6.788;2023-05-03T03:09:47;4.40;1.00
11577;DHT22;5844;51.496;6.788;2023-05-03T03:12:13;4.40;1.00
11577;DHT22;5844;51.496;6.788;2023-05-03T03:14:38;4.40;1.00
11577;DHT22;5844;51.496;6.788;2023-05-03T03:17:08;4.40;1.00
11577;DHT22;5844;51.496;6.788;2023-05-03T03:19:34;4.40;1.00
11577;DHT22;5844;51.496;6.788;2023-05-03T03:22:00;4.40;1.00
11577;DHT22;5844;51.496;6.788;2023-05-03T03:24:25;4.40;1.00
11577;DHT22;5844;51.496;6.788;2023-05-03T03:26:51;4.30;1.00
11577;DHT22;5844;51.496;6.788;2023-05-03T03:29:17;4.30;1.00
11577;DHT22;5844;51.496;6.788;2023-05-03T03:31:42;4.80;1.00
11577;DHT22;5844;51.496;6.788;2023-05-03T03:34:11;4.30;1.00
11577;DHT22;5844;51.496;6.788;2023-05-03T03:36:37;4.30;1.00
11577;DHT22;5844;51.496;6.788;2023-05-03T03:39:04;4.30;1.00
11577;DHT22;5844;51.496;6.788;2023-05-03T03:41:31;4.30;1.00
11577;DHT22;5844;51.496;6.788;2023-05-03T03:43:56;4.30;1.00
11577;DHT22;5844;51.496;6.788;2023-05-03T03:46:22;4.30;1.00
11577;DHT22;5844;51.496;6.788;2023-05-03T03:48:49;4.40;1.00
11577;DHT22;5844;51.496;6.788;2023-05-03T03:51:15;4.40;1.00
11577;DHT22;5844;51.496;6.788;2023-05-03T03:53:40;4.40;1.00
11577;DHT22;5844;51.496;6.788;2023-05-03T03:56:06;4.40;1.00
11577;DHT22;5844;51.496;6.788;2023-05-03T03:58:32;4.50;1.00
11577;DHT22;5844;51.496;6.788;2023-05-03T04:00:58;4.60;1.00
11577;DHT22;5844;51.496;6.788;2023-05-03T04:03:25;4.60;1.00
11577;DHT22;5844;51.496;6.788;2023-05-03T04:05:50;4.60;1.00
11577;DHT22;5844;51.496;6.788;2023-05-03T04:08:16;4.60;1.00
11577;DHT22;5844;51.496;6.788;2023-05-03T04:10:43;4.60;1.00
11577;DHT22;5844;51.496;6.788;2023-05-03T04:13:09;4.70;1.00
11577;DHT22;5844;51.496;6.788;2023-05-03T04:15:34;5.30;1.00
11577;DHT22;5844;51.496;6.788;2023-05-03T04:18:00;4.60;1.00
11577;DHT22;5844;51.496;6.788;2023-05-03T04:20:26;4.70;1.00
11577;DHT22;5844;51.496;6.788;2023-05-03T04:22:51;4.60;1.00
11577;DHT22;5844;51.496;6.788;2023-05-03T04:25:17;4.60;1.00
11577;DHT22;5844;51.496;6.788;2023-05-03T04:27:44;4.60;1.00
11577;DHT22;5844;51.496;6.788;2023-05-03T04:30:10;4.60;1.00
11577;DHT22;5844;51.496;6.788;2023-05-03T04:32:38;4.60;1.00
11577;DHT22;5844;51.496;6.788;2023-05-03T04:35:05;4.60;1.00
11577;DHT22;5844;51.496;6.788;2023-05-03T04:37:34;4.60;1.00
11577;DHT22;5844;51.496;6.788;2023-05-03T04:40:00;4.60;1.00
11577;DHT22;5844;51.496;6.788;2023-05-03T04:42:25;5.20;1.00
11577;DHT22;5844;51.496;6.788;2023-05-03T04:44:51;4.70;1.00
11577;DHT22;5844;51.496;6.788;2023-05-03T04:47:17;4.70;1.00
11577;DHT22;5844;51.496;6.788;2023-05-03T04:49:43;5.00;1.00
11577;DHT22;5844;51.496;6.788;2023-05-03T04:52:11;4.80;1.00
11577;DHT22;5844;51.496;6.788;2023-05-03T04:54:36;4.80;1.00
11577;DHT22;5844;51.496;6.788;2023-05-03T04:57:02;4.80;1.00
11577;DHT22;5844;51.496;6.788;2023-05-03T04:59:27;4.90;1.00
11577;DHT22;5844;51.496;6.788;2023-05-03T05:01:53;5.00;1.00
11577;DHT22;5844;51.496;6.788;2023-05-03T05:04:19;5.00;1.00
11577;DHT22;5844;51.496;6.788;2023-05-03T05:06:44;5.10;1.00
11577;DHT22;5844;51.496;6.788;2023-05-03T05:09:24;5.20;1.00
11577;DHT22;5844;51.496;6.788;2023-05-03T05:11:50;5.30;1.00
11577;DHT22;5844;51.496;6.788;2023-05-03T05:14:16;5.40;1.00
11577;DHT22;5844;51.496;6.788;2023-05-03T05:16:42;5.70;1.00
11577;DHT22;5844;51.496;6.788;2023-05-03T05:19:08;5.60;1.00
11577;DHT22;5844;51.496;6.788;2023-05-03T05:21:33;5.70;1.00
11577;DHT22;5844;51.496;6.788;2023-05-03T05:23:59;5.80;1.00
11577;DHT22;5844;51.496;6.788;2023-05-03T05:26:26;6.00;1.00
11577;DHT22;5844;51.496;6.788;2023-05-03T05:28:52;6.10;1.00
11577;DHT22;5844;51.496;6.788;2023-05-03T05:31:17;6.10;1.00
11577;DHT22;5844;51.496;6.788;2023-05-03T05:33:43;6.20;1.00
11577;DHT22;5844;51.496;6.788;2023-05-03T05:36:09;6.40;1.00
11577;DHT22;5844;51.496;6.788;2023-05-03T05:38:35;6.70;1.00
11577;DHT22;5844;51.496;6.788;2023-05-03T05:41:01;6.60;1.00
11577;DHT22;5844;51.496;6.788;2023-05-03T05:43:27;6.60;1.00
11577;DHT22;5844;51.496;6.788;2023-05-03T05:45:52;6.70;1.00
11577;DHT22;5844;51.496;6.788;2023-05-03T05:48:18;6.80;1.00
11577;DHT22;5844;51.496;6.788;2023-05-03T05:50:44;7.00;1.00
11577;DHT22;5844;51.496;6.788;2023-05-03T05:53:10;7.00;1.00
11577;DHT22;5844;51.496;6.788;2023-05-03T05:55:36;7.00;1.00
11577;DHT22;5844;51.496;6.788;2023-05-03T05:58:01;7.10;1.00
11577;DHT22;5844;51.496;6.788;2023-05-03T06:00:27;7.20;1.00
11577;DHT22;5844;51.496;6.788;2023-05-03T06:02:54;7.30;1.00
11577;DHT22;5844;51.496;6.788;2023-05-03T06:05:20;7.40;1.00
11577;DHT22;5844;51.496;6.788;2023-05-03T06:07:46;7.50;1.00
11577;DHT22;5844;51.496;6.788;2023-05-03T06:10:11;7.60;1.00
11577;DHT22;5844;51.496;6.788;2023-05-03T06:12:37;7.70;1.00
11577;DHT22;5844;51.496;6.788;2023-05-03T06:15:03;7.80;1.00
11577;DHT22;5844;51.496;6.788;2023-05-03T06:17:29;7.80;1.00
11577;DHT22;5844;51.496;6.788;2023-05-03T06:19:56;7.90;1.00
11577;DHT22;5844;51.496;6.788;2023-05-03T06:22:21;7.90;1.00
11577;DHT22;5844;51.496;6.788;2023-05-03T06:24:47;8.10;1.00
11577;DHT22;5844;51.496;6.788;2023-05-03T06:27:13;8.10;1.00
11577;DHT22;5844;51.496;6.788;2023-05-03T06:29:38;8.80;1.00
11577;DHT22;5844;51.496;6.788;2023-05-03T06:32:04;8.50;1.00
11577;DHT22;5844;51.496;6.788;2023-05-03T06:34:30;8.40;1.00
11577;DHT22;5844;51.496;6.788;2023-05-03T06:36:55;8.40;1.00
11577;DHT22;5844;51.496;6.788;2023-05-03T06:39:21;8.50;1.00
11577;DHT22;5844;51.496;6.788;2023-05-03T06:41:46;8.70;1.00
11577;DHT22;5844;51.496;6.788;2023-05-03T06:44:12;8.70;1.00
11577;DHT22;5844;51.496;6.788;2023-05-03T06:46:38;8.80;1.00
11577;DHT22;5844;51.496;6.788;2023-05-03T06:49:03;9.00;1.00
11577;DHT22;5844;51.496;6.788;2023-05-03T06:51:29;9.00;1.00
11577;DHT22;5844;51.496;6.788;2023-05-03T06:53:59;9.20;1.00
11577;DHT22;5844;51.496;6.788;2023-05-03T06:56:26;9.20;1.00
11577;DHT22;5844;51.496;6.788;2023-05-03T06:58:53;9.20;1.00
11577;DHT22;5844;51.496;6.788;2023-05-03T07:01:18;9.40;1.00
11577;DHT22;5844;51.496;6.788;2023-05-03T07:03:47;9.50;1.00
11577;DHT22;5844;51.496;6.788;2023-05-03T07:06:13;9.60;1.00
11577;DHT22;5844;51.496;6.788;2023-05-03T07:08:39;9.70;1.00
11577;DHT22;5844;51.496;6.788;2023-05-03T07:11:05;9.70;1.00
11577;DHT22;5844;51.496;6.788;2023-05-03T07:13:30;9.80;1.00
11577;DHT22;5844;51.496;6.788;2023-05-03T07:15:56;9.80;1.00
11577;DHT22;5844;51.496;6.788;2023-05-03T07:18:22;9.90;1.00
11577;DHT22;5844;51.496;6.788;2023-05-03T07:20:48;10.00;1.00
11577;DHT22;5844;51.496;6.788;2023-05-03T07:23:14;10.10;1.00
11577;DHT22;5844;51.496;6.788;2023-05-03T07:25:41;10.20;1.00
11577;DHT22;5844;51.496;6.788;2023-05-03T07:28:07;10.20;1.00
11577;DHT22;5844;51.496;6.788;2023-05-03T07:30:32;10.40;1.00
11577;DHT22;5844;51.496;6.788;2023-05-03T07:32:58;10.50;1.00
11577;DHT22;5844;51.496;6.788;2023-05-03T07:35:24;10.30;1.00
11577;DHT22;5844;51.496;6.788;2023-05-03T07:37:51;10.40;1.00
11577;DHT22;5844;51.496;6.788;2023-05-03T07:40:17;10.50;1.00
11577;DHT22;5844;51.496;6.788;2023-05-03T07:42:43;10.60;1.00
11577;DHT22;5844;51.496;6.788;2023-05-03T07:45:09;10.70;1.00
11577;DHT22;5844;51.496;6.788;2023-05-03T07:47:35;10.80;1.00
11577;DHT22;5844;51.496;6.788;2023-05-03T07:50:05;10.90;1.00
11577;DHT22;5844;51.496;6.788;2023-05-03T07:52:38;10.90;1.00
11577;DHT22;5844;51.496;6.788;2023-05-03T07:55:05;10.80;1.00
11577;DHT22;5844;51.496;6.788;2023-05-03T07:57:31;10.90;1.00
11577;DHT22;5844;51.496;6.788;2023-05-03T07:59:57;11.10;1.00
11577;DHT22;5844;51.496;6.788;2023-05-03T08:02:23;11.20;1.00
11577;DHT22;5844;51.496;6.788;2023-05-03T08:04:48;11.30;1.00
11577;DHT22;5844;51.496;6.788;2023-05-03T08:07:14;11.40;1.00
11577;DHT22;5844;51.496;6.788;2023-05-03T08:09:40;11.50;1.00
11577;DHT22;5844;51.496;6.788;2023-05-03T08:12:06;11.70;1.00
11577;DHT22;5844;51.496;6.788;2023-05-03T08:14:32;11.70;1.00
11577;DHT22;5844;51.496;6.788;2023-05-03T08:16:58;11.80;1.00
11577;DHT22;5844;51.496;6.788;2023-05-03T08:19:24;11.90;1.00
11577;DHT22;5844;51.496;6.788;2023-05-03T08:21:50;11.90;1.00
11577;DHT22;5844;51.496;6.788;2023-05-03T08:24:16;12.10;1.00
11577;DHT22;5844;51.496;6.788;2023-05-03T08:26:42;12.20;1.00
11577;DHT22;5844;51.496;6.788;2023-05-03T08:29:09;12.50;1.00
11577;DHT22;5844;51.496;6.788;2023-05-03T08:31:35;12.60;1.00
11577;DHT22;5844;51.496;6.788;2023-05-03T08:34:01;12.70;1.00
11577;DHT22;5844;51.496;6.788;2023-05-03T08:36:28;12.60;1.00
11577;DHT22;5844;51.496;6.788;2023-05-03T08:38:55;12.70;1.00
11577;DHT22;5844;51.496;6.788;2023-05-03T08:41:27;12.70;1.00
11577;DHT22;5844;51.496;6.788;2023-05-03T08:43:54;12.80;1.00
11577;DHT22;5844;51.496;6.788;2023-05-03T08:46:20;12.80;1.00
11577;DHT22;5844;51.496;6.788;2023-05-03T08:48:47;12.80;1.00
11577;DHT22;5844;51.496;6.788;2023-05-03T08:51:16;13.00;1.00
11577;DHT22;5844;51.496;6.788;2023-05-03T08:53:41;13.10;1.00
11577;DHT22;5844;51.496;6.788;2023-05-03T08:56:09;13.30;1.00
11577;DHT22;5844;51.496;6.788;2023-05-03T08:58:35;13.50;1.00
11577;DHT22;5844;51.496;6.788;2023-05-03T09:01:06;13.50;1.00
11577;DHT22;5844;51.496;6.788;2023-05-03T09:03:33;13.60;1.00
11577;DHT22;5844;51.496;6.788;2023-05-03T09:05:59;13.70;1.00
11577;DHT22;5844;51.496;6.788;2023-05-03T09:08:28;13.90;1.00
11577;DHT22;5844;51.496;6.788;2023-05-03T09:10:54;14.00;1.00
11577;DHT22;5844;51.496;6.788;2023-05-03T09:13:19;14.20;1.00
11577;DHT22;5844;51.496;6.788;2023-05-03T09:15:55;14.60;1.00
11577;DHT22;5844;51.496;6.788;2023-05-03T09:18:22;15.20;1.00
11577;DHT22;5844;51.496;6.788;2023-05-03T09:20:49;15.70;1.00
11577;DHT22;5844;51.496;6.788;2023-05-03T09:23:28;16.10;1.00
11577;DHT22;5844;51.496;6.788;2023-05-03T09:25:55;16.30;1.00
11577;DHT22;5844;51.496;6.788;2023-05-03T09:28:21;16.50;1.00
11577;DHT22;5844;51.496;6.788;2023-05-03T09:30:48;16.50;1.00
11577;DHT22;5844;51.496;6.788;2023-05-03T09:33:15;17.00;1.00
11577;DHT22;5844;51.496;6.788;2023-05-03T09:35:58;17.10;1.00
11577;DHT22;5844;51.496;6.788;2023-05-03T09:38:29;17.20;1.00
11577;DHT22;5844;51.496;6.788;2023-05-03T09:40:55;17.50;1.00
11577;DHT22;5844;51.496;6.788;2023-05-03T09:43:21;18.20;1.00
11577;DHT22;5844;51.496;6.788;2023-05-03T09:45:46;18.50;1.00
11577;DHT22;5844;51.496;6.788;2023-05-03T09:48:12;18.60;1.00
11577;DHT22;5844;51.496;6.788;2023-05-03T09:50:39;19.00;1.00
11577;DHT22;5844;51.496;6.788;2023-05-03T09:53:06;19.10;1.00
11577;DHT22;5844;51.496;6.788;2023-05-03T09:55:38;19.10;1.00
11577;DHT22;5844;51.496;6.788;2023-05-03T09:58:06;19.20;1.00
11577;DHT22;5844;51.496;6.788;2023-05-03T10:00:39;19.30;1.00
11577;DHT22;5844;51.496;6.788;2023-05-03T10:03:11;19.30;1.00
11577;DHT22;5844;51.496;6.788;2023-05-03T10:05:46;19.50;1.00
11577;DHT22;5844;51.496;6.788;2023-05-03T10:08:27;19.70;1.00
11577;DHT22;5844;51.496;6.788;2023-05-03T10:10:55;19.80;1.00
11577;DHT22;5844;51.496;6.788;2023-05-03T10:13:21;20.00;1.00
11577;DHT22;5844;51.496;6.788;2023-05-03T10:15:53;20.00;1.00
11577;DHT22;5844;51.496;6.788;2023-05-03T10:18:23;19.70;1.00
11577;DHT22;5844;51.496;6.788;2023-05-03T10:20:55;20.00;1.00
11577;DHT22;5844;51.496;6.788;2023-05-03T10:23:23;20.30;1.00
11577;DHT22;5844;51.496;6.788;2023-05-03T10:26:13;20.70;1.00
11577;DHT22;5844;51.496;6.788;2023-05-03T10:28:39;21.20;1.00
11577;DHT22;5844;51.496;6.788;2023-05-03T10:31:04;20.90;1.00
11577;DHT22;5844;51.496;6.788;2023-05-03T10:33:31;21.10;1.00
11577;DHT22;5844;51.496;6.788;2023-05-03T10:36:04;21.10;1.00
11577;DHT22;5844;51.496;6.788;2023-05-03T10:38:30;21.30;1.00
11577;DHT22;5844;51.496;6.788;2023-05-03T10:40:57;21.50;1.00
11577;DHT22;5844;51.496;6.788;2023-05-03T10:46:07;22.00;1.00
11577;DHT22;5844;51.496;6.788;2023-05-03T10:48:34;22.50;1.00
11577;DHT22;5844;51.496;6.788;2023-05-03T10:51:29;21.80;1.00
11577;DHT22;5844;51.496;6.788;2023-05-03T10:53:57;22.20;1.00
11577;DHT22;5844;51.496;6.788;2023-05-03T10:56:23;22.40;1.00
11577;DHT22;5844;51.496;6.788;2023-05-03T10:58:49;23.00;1.00
11577;DHT22;5844;51.496;6.788;2023-05-03T11:01:25;22.80;1.00
11577;DHT22;5844;51.496;6.788;2023-05-03T11:04:09;22.90;1.00
11577;DHT22;5844;51.496;6.788;2023-05-03T11:06:39;23.00;1.00
11577;DHT22;5844;51.496;6.788;2023-05-03T11:09:10;23.40;1.00
11577;DHT22;5844;51.496;6.788;2023-05-03T11:11:40;24.00;1.00
11577;DHT22;5844;51.496;6.788;2023-05-03T11:14:07;23.90;1.00
11577;DHT22;5844;51.496;6.788;2023-05-03T11:16:37;23.40;1.00
11577;DHT22;5844;51.496;6.788;2023-05-03T11:19:11;23.20;1.00
11577;DHT22;5844;51.496;6.788;2023-05-03T11:21:37;23.30;1.00
11577;DHT22;5844;51.496;6.788;2023-05-03T11:24:04;23.30;1.00
11577;DHT22;5844;51.496;6.788;2023-05-03T11:26:35;23.10;1.00
11577;DHT22;5844;51.496;6.788;2023-05-03T11:29:00;23.10;1.00
11577;DHT22;5844;51.496;6.788;2023-05-03T11:31:26;22.40;1.00
11577;DHT22;5844;51.496;6.788;2023-05-03T11:33:52;23.10;1.00
11577;DHT22;5844;51.496;6.788;2023-05-03T11:36:18;23.90;1.00
11577;DHT22;5844;51.496;6.788;2023-05-03T11:38:44;24.60;1.00
11577;DHT22;5844;51.496;6.788;2023-05-03T11:41:16;24.80;1.00
11577;DHT22;5844;51.496;6.788;2023-05-03T11:43:43;24.80;1.00
11577;DHT22;5844;51.496;6.788;2023-05-03T11:46:10;25.10;1.00
11577;DHT22;5844;51.496;6.788;2023-05-03T11:48:37;25.20;1.00
11577;DHT22;5844;51.496;6.788;2023-05-03T11:51:07;25.80;1.00
11577;DHT22;5844;51.496;6.788;2023-05-03T11:53:36;26.20;1.00
11577;DHT22;5844;51.496;6.788;2023-05-03T11:56:14;26.30;1.00
11577;DHT22;5844;51.496;6.788;2023-05-03T11:58:52;26.20;1.00
11577;DHT22;5844;51.496;6.788;2023-05-03T12:01:22;26.40;1.00
11577;DHT22;5844;51.496;6.788;2023-05-03T12:03:56;26.60;1.00
11577;DHT22;5844;51.496;6.788;2023-05-03T12:06:22;26.40;1.00
11577;DHT22;5844;51.496;6.788;2023-05-03T12:08:48;26.50;1.00
11577;DHT22;5844;51.496;6.788;2023-05-03T12:11:14;26.50;1.00
11577;DHT22;5844;51.496;6.788;2023-05-03T12:13:40;26.80;1.00
11577;DHT22;5844;51.496;6.788;2023-05-03T12:16:09;27.30;1.00
11577;DHT22;5844;51.496;6.788;2023-05-03T12:21:10;28.00;1.00
11577;DHT22;5844;51.496;6.788;2023-05-03T12:23:37;28.40;1.00
11577;DHT22;5844;51.496;6.788;2023-05-03T12:26:03;28.20;1.00
11577;DHT22;5844;51.496;6.788;2023-05-03T12:28:30;28.20;1.00
11577;DHT22;5844;51.496;6.788;2023-05-03T12:30:56;27.70;1.00
11577;DHT22;5844;51.496;6.788;2023-05-03T12:33:22;27.60;1.00
11577;DHT22;5844;51.496;6.788;2023-05-03T12:35:47;27.80;1.00
11577;DHT22;5844;51.496;6.788;2023-05-03T12:38:13;28.30;1.00
11577;DHT22;5844;51.496;6.788;2023-05-03T12:40:39;28.10;1.00
11577;DHT22;5844;51.496;6.788;2023-05-03T12:43:05;28.20;1.00
11577;DHT22;5844;51.496;6.788;2023-05-03T12:45:31;28.20;1.00
11577;DHT22;5844;51.496;6.788;2023-05-03T12:47:57;28.90;1.00
11577;DHT22;5844;51.496;6.788;2023-05-03T12:50:23;28.40;1.00
11577;DHT22;5844;51.496;6.788;2023-05-03T12:52:49;28.60;1.00
11577;DHT22;5844;51.496;6.788;2023-05-03T12:55:15;28.20;1.00
11577;DHT22;5844;51.496;6.788;2023-05-03T12:57:41;28.30;1.00
11577;DHT22;5844;51.496;6.788;2023-05-03T13:00:07;28.60;1.00
11577;DHT22;5844;51.496;6.788;2023-05-03T13:02:34;28.90;1.00
11577;DHT22;5844;51.496;6.788;2023-05-03T13:05:00;29.10;1.00
11577;DHT22;5844;51.496;6.788;2023-05-03T13:07:27;28.60;1.00
11577;DHT22;5844;51.496;6.788;2023-05-03T13:09:53;27.70;1.00
11577;DHT22;5844;51.496;6.788;2023-05-03T13:12:20;27.60;1.00
11577;DHT22;5844;51.496;6.788;2023-05-03T13:14:51;27.80;1.00
11577;DHT22;5844;51.496;6.788;2023-05-03T13:17:17;28.30;1.00
11577;DHT22;5844;51.496;6.788;2023-05-03T13:19:45;27.90;1.00
11577;DHT22;5844;51.496;6.788;2023-05-03T13:22:12;28.30;1.00
11577;DHT22;5844;51.496;6.788;2023-05-03T13:24:39;28.90;1.00
11577;DHT22;5844;51.496;6.788;2023-05-03T13:27:05;28.90;1.00
11577;DHT22;5844;51.496;6.788;2023-05-03T13:29:30;29.60;1.00
11577;DHT22;5844;51.496;6.788;2023-05-03T13:31:56;28.50;1.00
11577;DHT22;5844;51.496;6.788;2023-05-03T13:34:22;28.70;1.00
11577;DHT22;5844;51.496;6.788;2023-05-03T13:36:47;29.50;1.00
11577;DHT22;5844;51.496;6.788;2023-05-03T13:39:13;29.80;1.00
11577;DHT22;5844;51.496;6.788;2023-05-03T13:41:39;29.20;1.00
11577;DHT22;5844;51.496;6.788;2023-05-03T13:44:07;29.50;1.00
11577;DHT22;5844;51.496;6.788;2023-05-03T13:46:37;29.40;1.00
11577;DHT22;5844;51.496;6.788;2023-05-03T13:49:04;29.10;1.00
11577;DHT22;5844;51.496;6.788;2023-05-03T13:51:30;29.00;1.00
11577;DHT22;5844;51.496;6.788;2023-05-03T13:54:00;29.30;1.00
11577;DHT22;5844;51.496;6.788;2023-05-03T13:56:26;29.50;1.00
11577;DHT22;5844;51.496;6.788;2023-05-03T13:58:52;29.60;1.00
11577;DHT22;5844;51.496;6.788;2023-05-03T14:01:19;29.80;1.00
11577;DHT22;5844;51.496;6.788;2023-05-03T14:03:45;30.30;1.00
11577;DHT22;5844;51.496;6.788;2023-05-03T14:06:11;30.80;1.00
11577;DHT22;5844;51.496;6.788;2023-05-03T14:08:36;30.50;1.00
11577;DHT22;5844;51.496;6.788;2023-05-03T14:11:02;29.80;1.00
11577;DHT22;5844;51.496;6.788;2023-05-03T14:13:28;29.70;1.00
11577;DHT22;5844;51.496;6.788;2023-05-03T14:15:54;29.40;1.00
11577;DHT22;5844;51.496;6.788;2023-05-03T14:18:20;28.90;1.00
11577;DHT22;5844;51.496;6.788;2023-05-03T14:20:46;29.10;1.00
11577;DHT22;5844;51.496;6.788;2023-05-03T14:23:15;29.50;1.00
11577;DHT22;5844;51.496;6.788;2023-05-03T14:25:41;30.20;1.00
11577;DHT22;5844;51.496;6.788;2023-05-03T14:28:07;30.50;1.00
11577;DHT22;5844;51.496;6.788;2023-05-03T14:30:33;30.50;1.00
11577;DHT22;5844;51.496;6.788;2023-05-03T14:32:58;31.00;1.00
11577;DHT22;5844;51.496;6.788;2023-05-03T14:35:24;30.90;1.00
11577;DHT22;5844;51.496;6.788;2023-05-03T14:37:50;30.60;1.00
11577;DHT22;5844;51.496;6.788;2023-05-03T14:40:16;30.00;1.00
11577;DHT22;5844;51.496;6.788;2023-05-03T14:42:42;29.80;1.00
11577;DHT22;5844;51.496;6.788;2023-05-03T14:45:08;30.30;1.00
11577;DHT22;5844;51.496;6.788;2023-05-03T14:47:33;30.20;1.00
11577;DHT22;5844;51.496;6.788;2023-05-03T14:49:59;30.20;1.00
11577;DHT22;5844;51.496;6.788;2023-05-03T14:52:25;30.20;1.00
11577;DHT22;5844;51.496;6.788;2023-05-03T14:54:51;30.30;1.00
11577;DHT22;5844;51.496;6.788;2023-05-03T14:57:18;30.60;1.00
11577;DHT22;5844;51.496;6.788;2023-05-03T14:59:43;30.70;1.00
11577;DHT22;5844;51.496;6.788;2023-05-03T15:02:10;30.40;1.00
11577;DHT22;5844;51.496;6.788;2023-05-03T15:04:38;30.50;1.00
11577;DHT22;5844;51.496;6.788;2023-05-03T15:07:04;30.20;1.00
11577;DHT22;5844;51.496;6.788;2023-05-03T15:09:32;30.00;1.00
11577;DHT22;5844;51.496;6.788;2023-05-03T15:11:58;30.00;1.00
11577;DHT22;5844;51.496;6.788;2023-05-03T15:14:24;30.40;1.00
11577;DHT22;5844;51.496;6.788;2023-05-03T15:16:50;30.70;1.00
11577;DHT22;5844;51.496;6.788;2023-05-03T15:19:15;30.40;1.00
11577;DHT22;5844;51.496;6.788;2023-05-03T15:21:48;30.60;1.00
11577;DHT22;5844;51.496;6.788;2023-05-03T15:24:15;29.80;1.00
11577;DHT22;5844;51.496;6.788;2023-05-03T15:26:41;29.40;1.00
11577;DHT22;5844;51.496;6.788;2023-05-03T15:29:07;29.60;1.00
11577;DHT22;5844;51.496;6.788;2023-05-03T15:31:34;29.40;1.00
11577;DHT22;5844;51.496;6.788;2023-05-03T15:34:00;29.20;1.00
11577;DHT22;5844;51.496;6.788;2023-05-03T15:36:26;29.50;1.00
11577;DHT22;5844;51.496;6.788;2023-05-03T15:38:51;29.80;1.00
11577;DHT22;5844;51.496;6.788;2023-05-03T15:41:17;30.10;1.00
11577;DHT22;5844;51.496;6.788;2023-05-03T15:43:44;30.40;1.00
11577;DHT22;5844;51.496;6.788;2023-05-03T15:46:10;30.40;1.00
11577;DHT22;5844;51.496;6.788;2023-05-03T15:48:36;29.80;1.00
11577;DHT22;5844;51.496;6.788;2023-05-03T15:51:01;29.70;1.00
11577;DHT22;5844;51.496;6.788;2023-05-03T15:53:27;29.20;1.00
11577;DHT22;5844;51.496;6.788;2023-05-03T15:55:53;29.20;1.00
11577;DHT22;5844;51.496;6.788;2023-05-03T15:58:26;29.20;1.00
11577;DHT22;5844;51.496;6.788;2023-05-03T16:00:55;29.70;1.00
11577;DHT22;5844;51.496;6.788;2023-05-03T16:03:24;29.50;1.00
11577;DHT22;5844;51.496;6.788;2023-05-03T16:05:51;29.90;1.00
11577;DHT22;5844;51.496;6.788;2023-05-03T16:08:17;30.00;1.00
11577;DHT22;5844;51.496;6.788;2023-05-03T16:10:44;29.70;1.00
11577;DHT22;5844;51.496;6.788;2023-05-03T16:13:10;29.40;1.00
11577;DHT22;5844;51.496;6.788;2023-05-03T16:15:36;29.40;1.00
11577;DHT22;5844;51.496;6.788;2023-05-03T16:18:02;29.00;1.00